Time;durP1;ratioP1;P1;durP2;ratioP2;P2;SDS_P1;SDS_P2;PMS_P1;PMS_P2;Temp;Humidity;BMP_temperature;BMP_pressure;BME280_temperature;BME280_humidity;BME280_pressure;Samples;Min_cycle;Max_cycle;Signal;HPM_P1;HPM_P2
2022/03/24 00:02:18;;;;;;;35.10;15.23;;;6.50;99.90;;;;;;5075919;28;20078;-74
2022/03/24 00:04:43;;;;;;;42.03;15.73;;;6.40;99.90;;;;;;5088929;28;20024;-73
2022/03/24 00:07:09;;;;;;;41.88;14.35;;;6.40;99.90;;;;;;5096679;28;20028;-74
2022/03/24 00:09:34;;;;;;;47.15;15.88;;;6.30;99.90;;;;;;5095997;28;20051;-74
2022/03/24 00:12:00;;;;;;;42.65;16.85;;;6.20;99.90;;;;;;5096397;28;20020;-74
2022/03/24 00:14:26;;;;;;;41.08;15.20;;;6.20;99.90;;;;;;5094753;28;20384;-75
2022/03/24 00:16:51;;;;;;;37.83;15.93;;;6.10;99.90;;;;;;5095797;28;20040;-75
2022/03/24 00:19:19;;;;;;;38.15;16.15;;;6.10;99.90;;;;;;5094507;28;20039;-75
2022/03/24 00:21:45;;;;;;;37.00;14.35;;;6.00;99.90;;;;;;5094746;28;20028;-76
2022/03/24 00:24:11;;;;;;;49.38;15.73;;;6.00;99.90;;;;;;5096204;28;20028;-76
2022/03/24 00:26:37;;;;;;;45.78;18.42;;;5.90;99.90;;;;;;5095159;28;20021;-76
2022/03/24 00:29:04;;;;;;;42.97;16.67;;;5.90;99.90;;;;;;5096126;28;20051;-76
2022/03/24 00:31:30;;;;;;;44.33;16.52;;;5.90;99.90;;;;;;5094566;28;20024;-76
2022/03/24 00:33:55;;;;;;;45.80;16.75;;;5.90;99.90;;;;;;5079007;28;20037;-76
2022/03/24 00:36:22;;;;;;;46.05;16.15;;;5.90;99.90;;;;;;5074853;28;20025;-76
2022/03/24 00:38:52;;;;;;;47.63;17.17;;;5.80;99.90;;;;;;5075229;28;20028;-76
2022/03/24 00:41:18;;;;;;;48.17;17.83;;;5.80;99.90;;;;;;5075465;28;20028;-74
2022/03/24 00:43:44;;;;;;;40.13;17.00;;;5.70;99.90;;;;;;5075309;28;20103;-76
2022/03/24 00:46:10;;;;;;;44.10;17.92;;;5.70;99.90;;;;;;5077963;28;20113;-76
2022/03/24 00:48:36;;;;;;;46.58;17.40;;;5.60;99.90;;;;;;5093979;28;20477;-76
2022/03/24 00:51:01;;;;;;;41.30;16.85;;;5.60;99.90;;;;;;5093955;28;20024;-76
2022/03/24 00:53:29;;;;;;;57.20;17.73;;;5.50;99.90;;;;;;5095782;28;20020;-76
2022/03/24 00:55:56;;;;;;;45.05;17.90;;;5.50;99.90;;;;;;5093912;28;20028;-76
2022/03/24 00:58:21;;;;;;;43.75;16.08;;;5.50;99.90;;;;;;5093955;28;20021;-76
2022/03/24 01:00:47;;;;;;;51.70;18.02;;;5.50;99.90;;;;;;5093631;28;20022;-75
2022/03/24 01:03:13;;;;;;;43.72;17.45;;;5.40;99.90;;;;;;5095295;28;20027;-75
2022/03/24 01:05:39;;;;;;;45.65;17.83;;;5.30;99.90;;;;;;5093709;28;20028;-75
2022/03/24 01:08:08;;;;;;;41.00;16.63;;;5.30;99.90;;;;;;5094838;28;20077;-74
2022/03/24 01:10:35;;;;;;;45.35;16.08;;;5.30;99.90;;;;;;5095335;28;20020;-73
2022/03/24 01:13:01;;;;;;;47.90;17.08;;;5.20;99.90;;;;;;5094840;28;20053;-73
2022/03/24 01:15:28;;;;;;;43.83;16.45;;;5.20;99.90;;;;;;5085063;28;20119;-73
2022/03/24 01:17:53;;;;;;;48.17;17.25;;;5.20;99.90;;;;;;5074806;28;20418;-73
2022/03/24 01:20:21;;;;;;;43.63;16.52;;;5.20;99.90;;;;;;5087447;28;20118;-73
2022/03/24 01:22:46;;;;;;;50.88;17.23;;;5.10;99.90;;;;;;5094655;28;20016;-73
2022/03/24 01:25:12;;;;;;;49.33;16.80;;;5.20;99.90;;;;;;5095147;28;20032;-73
2022/03/24 01:27:38;;;;;;;42.17;14.88;;;5.20;99.90;;;;;;5094487;28;20023;-73
2022/03/24 01:30:08;;;;;;;40.15;16.85;;;5.10;99.90;;;;;;5094458;28;20027;-73
2022/03/24 01:32:35;;;;;;;36.90;15.15;;;5.10;99.90;;;;;;5093338;28;20024;-73
2022/03/24 01:35:01;;;;;;;40.47;15.25;;;5.10;99.90;;;;;;5075759;28;20035;-73
2022/03/24 01:37:26;;;;;;;40.40;14.88;;;5.10;99.90;;;;;;5074056;28;20024;-73
2022/03/24 01:39:52;;;;;;;39.65;13.77;;;5.10;99.90;;;;;;5074142;28;20401;-73
2022/03/24 01:42:19;;;;;;;37.00;14.02;;;6.20;99.90;;;;;;5073993;28;20024;-73
2022/03/24 01:44:48;;;;;;;33.60;13.35;;;5.10;99.90;;;;;;5073928;28;20025;-73
2022/03/24 01:47:15;;;;;;;38.28;14.38;;;5.10;99.90;;;;;;5073837;28;20088;-73
2022/03/24 01:49:43;;;;;;;40.40;14.80;;;5.20;99.90;;;;;;5091396;28;20039;-73
2022/03/24 01:52:11;;;;;;;47.30;16.00;;;5.10;99.90;;;;;;5094022;28;20069;-73
2022/03/24 01:54:40;;;;;;;38.92;16.33;;;5.10;99.90;;;;;;5094110;28;20027;-73
2022/03/24 01:57:07;;;;;;;44.30;16.30;;;5.10;99.90;;;;;;5092672;28;20114;-73
2022/03/24 01:59:37;;;;;;;41.17;15.77;;;5.00;99.90;;;;;;5094375;28;20485;-73
2022/03/24 02:02:07;;;;;;;46.83;16.83;;;5.00;99.90;;;;;;5093783;28;20095;-73
2022/03/24 02:04:35;;;;;;;49.17;16.83;;;5.00;99.90;;;;;;5093563;28;20026;-73
2022/03/24 02:07:05;;;;;;;43.33;17.13;;;4.90;99.90;;;;;;5094105;28;20385;-73
2022/03/24 02:09:31;;;;;;;49.72;18.20;;;4.80;99.90;;;;;;5093798;28;20366;-73
2022/03/24 02:11:57;;;;;;;52.10;17.45;;;4.80;99.90;;;;;;5094100;28;20069;-73
2022/03/24 02:14:22;;;;;;;44.83;16.52;;;4.70;99.90;;;;;;5093745;28;20055;-73
2022/03/24 02:16:49;;;;;;;44.72;16.80;;;4.60;99.90;;;;;;5093673;28;20035;-73
2022/03/24 02:19:17;;;;;;;47.88;17.35;;;4.60;99.90;;;;;;5075936;28;20032;-73
2022/03/24 02:21:44;;;;;;;51.42;18.23;;;4.50;99.90;;;;;;5073302;28;20484;-74
2022/03/24 02:24:15;;;;;;;50.83;18.25;;;4.50;99.90;;;;;;5072180;28;20020;-74
2022/03/24 02:26:45;;;;;;;40.75;17.33;;;4.50;99.90;;;;;;5072168;28;20162;-74
2022/03/24 02:29:12;;;;;;;43.88;17.35;;;4.40;99.90;;;;;;5073306;28;20021;-74
2022/03/24 02:31:43;;;;;;;46.45;18.10;;;4.40;99.90;;;;;;5072064;28;20028;-74
2022/03/24 02:36:55;;;;;;;47.28;17.52;;;4.40;99.90;;;;;;5083390;28;20043;-74
2022/03/24 02:39:21;;;;;;;53.05;19.65;;;4.30;99.90;;;;;;5093082;28;20028;-75
2022/03/24 02:41:52;;;;;;;57.10;19.80;;;4.30;99.90;;;;;;5093410;28;20016;-75
2022/03/24 02:44:24;;;;;;;52.67;19.65;;;4.30;99.90;;;;;;5092068;28;20020;-75
2022/03/24 02:46:52;;;;;;;58.78;18.58;;;4.30;99.90;;;;;;5093349;28;20116;-75
2022/03/24 02:49:19;;;;;;;52.17;19.73;;;4.30;99.90;;;;;;5093275;28;20043;-75
2022/03/24 02:51:46;;;;;;;49.88;18.23;;;4.30;99.90;;;;;;5093355;28;20035;-76
2022/03/24 02:54:12;;;;;;;58.53;17.52;;;4.30;99.90;;;;;;5093319;28;20028;-76
2022/03/24 02:56:38;;;;;;;51.97;19.02;;;4.20;99.90;;;;;;5092904;28;20024;-76
2022/03/24 02:59:06;;;;;;;49.58;19.33;;;4.20;99.90;;;;;;5071652;28;20027;-75
2022/03/24 03:01:33;;;;;;;45.80;18.00;;;4.20;99.90;;;;;;5073031;28;20017;-75
2022/03/24 03:03:59;;;;;;;50.97;18.35;;;4.10;99.90;;;;;;5073529;28;20554;-75
2022/03/24 03:06:25;;;;;;;50.30;18.33;;;4.10;99.90;;;;;;5071697;28;20017;-75
2022/03/24 03:08:50;;;;;;;48.03;17.55;;;4.00;99.90;;;;;;5073066;28;20090;-75
2022/03/24 03:11:16;;;;;;;45.80;17.80;;;4.00;99.90;;;;;;5073075;28;20032;-76
2022/03/24 03:13:43;;;;;;;54.70;19.75;;;4.00;99.90;;;;;;5072860;28;20078;-75
2022/03/24 03:16:09;;;;;;;53.80;19.13;;;4.10;99.90;;;;;;5071460;28;20490;-75
2022/03/24 03:18:34;;;;;;;47.83;18.95;;;4.10;99.90;;;;;;5072675;28;20032;-75
2022/03/24 03:21:00;;;;;;;50.03;18.02;;;4.10;99.90;;;;;;5073030;28;20031;-75
2022/03/24 03:23:26;;;;;;;47.40;17.45;;;4.00;99.90;;;;;;5073026;28;20021;-75
2022/03/24 03:25:52;;;;;;;51.83;19.08;;;4.00;99.90;;;;;;5071467;28;20013;-75
2022/03/24 03:28:18;;;;;;;52.78;18.58;;;4.00;99.90;;;;;;5072761;28;20031;-75
2022/03/24 03:30:44;;;;;;;54.28;19.83;;;3.90;99.90;;;;;;5072690;28;20045;-75
2022/03/24 03:33:10;;;;;;;50.92;19.02;;;3.90;99.90;;;;;;5075529;28;20105;-75
2022/03/24 03:35:37;;;;;;;53.85;18.75;;;3.80;99.90;;;;;;5076341;28;20071;-75
2022/03/24 03:38:03;;;;;;;54.47;20.42;;;3.80;99.90;;;;;;5076346;28;20025;-75
2022/03/24 03:40:29;;;;;;;54.88;17.77;;;3.80;99.90;;;;;;5076600;28;20017;-75
2022/03/24 03:42:55;;;;;;;47.13;18.98;;;3.70;99.90;;;;;;5080314;28;20077;-75
2022/03/24 03:45:20;;;;;;;51.85;18.63;;;3.70;99.90;;;;;;5096437;28;20016;-75
2022/03/24 03:47:46;;;;;;;45.92;17.98;;;3.70;99.90;;;;;;5097046;28;20032;-75
2022/03/24 03:50:11;;;;;;;52.13;18.63;;;3.60;99.90;;;;;;5096364;28;20069;-75
2022/03/24 03:52:37;;;;;;;58.53;18.40;;;3.60;99.90;;;;;;5096298;28;20023;-75
2022/03/24 03:55:04;;;;;;;46.00;17.15;;;3.60;99.90;;;;;;5095059;28;20020;-75
2022/03/24 03:57:30;;;;;;;55.63;19.65;;;3.60;99.90;;;;;;5088101;28;20425;-75
2022/03/24 03:59:55;;;;;;;60.55;18.33;;;3.60;99.90;;;;;;5074531;28;20060;-75
2022/03/24 04:02:21;;;;;;;52.38;17.95;;;3.60;99.90;;;;;;5075894;28;20052;-75
2022/03/24 04:04:47;;;;;;;46.90;18.23;;;3.60;99.90;;;;;;5079498;28;20012;-75
2022/03/24 04:07:12;;;;;;;43.03;17.17;;;3.60;99.90;;;;;;5096073;28;20024;-75
2022/03/24 04:09:38;;;;;;;44.58;15.35;;;3.60;99.90;;;;;;5095918;28;20027;-75
2022/03/24 04:12:05;;;;;;;48.30;16.77;;;3.60;99.90;;;;;;5096513;28;20145;-75
2022/03/24 04:14:32;;;;;;;41.67;16.63;;;3.50;99.90;;;;;;5095903;28;20483;-75
2022/03/24 04:16:58;;;;;;;47.22;16.55;;;3.50;99.90;;;;;;5094532;28;20439;-75
2022/03/24 04:19:25;;;;;;;50.78;17.83;;;3.50;99.90;;;;;;5095950;28;20024;-74
2022/03/24 04:21:51;;;;;;;54.97;18.20;;;3.50;99.90;;;;;;5096030;28;20465;-74
2022/03/24 04:24:16;;;;;;;51.35;17.95;;;3.50;99.90;;;;;;5094465;28;20016;-75
2022/03/24 04:26:42;;;;;;;41.47;16.38;;;3.50;99.90;;;;;;5095672;28;20032;-75
2022/03/24 04:29:07;;;;;;;46.85;16.67;;;3.50;99.90;;;;;;5086362;28;20104;-76
2022/03/24 04:31:34;;;;;;;45.15;17.92;;;3.50;99.90;;;;;;5075342;28;20059;-76
2022/03/24 04:34:00;;;;;;;45.20;17.27;;;3.40;99.90;;;;;;5091882;28;20032;-75
2022/03/24 04:36:26;;;;;;;44.95;17.50;;;3.40;99.90;;;;;;5095452;28;20035;-75
2022/03/24 04:38:52;;;;;;;48.78;17.15;;;3.40;99.90;;;;;;5095753;28;20016;-75
2022/03/24 04:41:18;;;;;;;47.05;16.15;;;3.40;99.90;;;;;;5094141;28;20020;-75
2022/03/24 04:43:43;;;;;;;47.65;18.30;;;3.40;99.90;;;;;;5094777;28;20020;-75
2022/03/24 04:46:09;;;;;;;49.50;17.42;;;3.40;99.90;;;;;;5094246;28;20016;-74
2022/03/24 04:48:37;;;;;;;45.97;17.20;;;3.40;99.90;;;;;;5093993;28;20403;-75
2022/03/24 04:51:05;;;;;;;45.00;16.75;;;3.40;99.90;;;;;;5094087;28;20070;-75
2022/03/24 04:53:31;;;;;;;46.05;16.02;;;3.30;99.90;;;;;;5095113;28;20023;-75
2022/03/24 04:55:57;;;;;;;50.40;17.73;;;3.30;99.90;;;;;;5095460;28;20021;-75
2022/03/24 04:58:23;;;;;;;45.03;16.33;;;3.30;99.90;;;;;;5095002;28;20048;-75
2022/03/24 05:00:48;;;;;;;45.10;15.95;;;3.20;99.90;;;;;;5094945;28;20051;-75
2022/03/24 05:03:14;;;;;;;40.60;15.27;;;3.20;99.90;;;;;;5095253;28;20110;-75
2022/03/24 05:05:39;;;;;;;44.15;16.50;;;3.20;99.90;;;;;;5094882;28;20093;-75
2022/03/24 05:08:05;;;;;;;42.70;16.15;;;3.20;99.90;;;;;;5094857;28;20032;-75
2022/03/24 05:10:31;;;;;;;46.28;16.70;;;3.20;99.90;;;;;;5094706;28;20115;-75
2022/03/24 05:12:56;;;;;;;40.60;16.73;;;3.10;99.90;;;;;;5094841;28;20102;-75
2022/03/24 05:15:23;;;;;;;42.25;16.77;;;3.10;99.90;;;;;;5094734;28;20107;-75
2022/03/24 05:17:50;;;;;;;47.33;17.40;;;3.10;99.90;;;;;;5094693;28;20034;-76
2022/03/24 05:20:16;;;;;;;45.17;17.88;;;3.10;99.90;;;;;;5093312;28;20016;-76
2022/03/24 05:22:42;;;;;;;43.30;16.08;;;3.10;99.90;;;;;;5093413;28;20027;-75
2022/03/24 05:25:08;;;;;;;44.08;15.93;;;3.10;99.90;;;;;;5094616;28;20148;-75
2022/03/24 05:27:35;;;;;;;39.08;15.27;;;3.00;99.90;;;;;;5094764;28;20016;-75
2022/03/24 05:30:01;;;;;;;49.38;16.90;;;3.00;99.90;;;;;;5094770;28;20017;-75
2022/03/24 05:32:27;;;;;;;44.50;16.05;;;3.00;99.90;;;;;;5094396;28;20032;-75
2022/03/24 05:34:54;;;;;;;47.20;16.85;;;3.00;99.90;;;;;;5094375;28;20069;-75
2022/03/24 05:37:19;;;;;;;42.60;16.20;;;3.00;99.90;;;;;;5094652;28;20031;-75
2022/03/24 05:39:45;;;;;;;46.83;16.88;;;3.00;99.90;;;;;;5094344;28;20381;-74
2022/03/24 05:42:11;;;;;;;42.83;17.02;;;3.00;99.90;;;;;;5094358;28;20366;-75
2022/03/24 05:44:36;;;;;;;48.85;16.10;;;3.00;99.90;;;;;;5093765;28;20474;-75
2022/03/24 05:47:02;;;;;;;48.58;16.67;;;3.00;99.90;;;;;;5074424;28;20020;-75
2022/03/24 05:49:28;;;;;;;46.65;16.38;;;3.00;99.90;;;;;;5073752;28;20082;-75
2022/03/24 05:51:54;;;;;;;48.47;17.92;;;3.00;99.90;;;;;;5074093;28;20029;-75
2022/03/24 05:54:21;;;;;;;46.85;16.73;;;3.00;99.90;;;;;;5073833;28;20029;-75
2022/03/24 05:56:48;;;;;;;45.13;16.00;;;3.00;99.90;;;;;;5071657;28;20028;-75
2022/03/24 05:59:14;;;;;;;51.42;16.17;;;3.10;99.90;;;;;;5072349;28;20027;-75
2022/03/24 06:01:41;;;;;;;46.25;17.13;;;3.10;99.90;;;;;;5079053;28;20428;-74
2022/03/24 06:04:08;;;;;;;46.65;17.92;;;3.10;99.90;;;;;;5079480;28;20385;-74
2022/03/24 06:06:34;;;;;;;56.25;17.63;;;3.20;99.90;;;;;;5092841;28;20012;-74
2022/03/24 06:09:03;;;;;;;45.17;17.02;;;3.20;99.90;;;;;;5094226;28;20020;-73
2022/03/24 06:11:30;;;;;;;42.92;16.55;;;3.20;99.90;;;;;;5094045;28;20023;-75
2022/03/24 06:13:55;;;;;;;44.50;15.82;;;3.20;99.90;;;;;;5092486;28;20530;-76
2022/03/24 06:16:22;;;;;;;42.20;14.95;;;3.30;99.90;;;;;;5093725;28;20024;-75
2022/03/24 06:18:47;;;;;;;47.53;17.38;;;3.40;99.90;;;;;;5093580;28;20020;-75
2022/03/24 06:21:14;;;;;;;51.03;17.20;;;3.40;99.90;;;;;;5093687;28;20069;-75
2022/03/24 06:23:39;;;;;;;41.95;15.93;;;3.50;99.90;;;;;;5093625;28;20518;-76
2022/03/24 06:26:05;;;;;;;41.15;15.85;;;3.70;99.90;;;;;;5093442;28;20024;-74
2022/03/24 06:28:31;;;;;;;38.00;15.27;;;3.80;99.90;;;;;;5093809;28;20032;-75
2022/03/24 06:30:57;;;;;;;43.95;15.93;;;3.80;99.90;;;;;;5093464;28;20028;-75
2022/03/24 06:33:23;;;;;;;41.42;15.45;;;4.00;99.90;;;;;;5092806;28;20024;-75
2022/03/24 06:35:49;;;;;;;47.35;16.10;;;4.10;99.90;;;;;;5083434;28;20035;-75
2022/03/24 06:38:16;;;;;;;33.13;14.27;;;4.20;99.90;;;;;;5073201;28;20485;-75
2022/03/24 06:40:42;;;;;;;49.17;17.02;;;4.30;99.90;;;;;;5073346;28;20503;-76
2022/03/24 06:43:09;;;;;;;46.70;17.45;;;4.40;99.90;;;;;;5077851;28;20047;-76
2022/03/24 06:45:36;;;;;;;78.28;19.23;;;4.60;99.90;;;;;;5092244;28;20174;-75
2022/03/24 06:48:03;;;;;;;42.70;15.73;;;4.70;99.90;;;;;;5092290;28;20050;-76
2022/03/24 06:50:28;;;;;;;43.40;17.63;;;4.80;99.90;;;;;;5093297;28;20369;-75
2022/03/24 06:52:54;;;;;;;44.05;16.42;;;5.00;99.90;;;;;;5091882;28;20161;-76
2022/03/24 06:55:20;;;;;;;52.03;16.92;;;5.10;99.90;;;;;;5093567;28;20024;-75
2022/03/24 06:57:46;;;;;;;48.20;16.63;;;5.20;99.90;;;;;;5093232;28;20354;-75
2022/03/24 07:00:13;;;;;;;49.80;17.38;;;5.30;99.90;;;;;;5094218;28;20031;-75
2022/03/24 07:02:40;;;;;;;44.90;16.33;;;5.50;99.90;;;;;;5076132;28;20406;-75
2022/03/24 07:05:07;;;;;;;48.70;17.25;;;5.60;99.90;;;;;;5073442;28;20029;-75
2022/03/24 07:07:34;;;;;;;41.40;15.57;;;5.80;99.90;;;;;;5074355;28;20020;-74
2022/03/24 07:10:00;;;;;;;46.22;17.13;;;6.00;99.90;;;;;;5082938;28;20111;-75
2022/03/24 07:12:25;;;;;;;49.10;17.48;;;6.10;99.90;;;;;;5076197;28;20052;-76
2022/03/24 07:14:51;;;;;;;48.30;17.73;;;6.30;99.90;;;;;;5077083;28;20035;-76
2022/03/24 07:17:19;;;;;;;42.53;16.23;;;6.50;99.90;;;;;;5078233;28;20074;-75
2022/03/24 07:19:45;;;;;;;43.80;17.98;;;6.70;99.90;;;;;;5075682;28;20025;-75
2022/03/24 07:22:10;;;;;;;50.80;19.35;;;6.80;99.90;;;;;;5076805;28;20073;-75
2022/03/24 07:24:36;;;;;;;42.60;16.70;;;7.00;99.90;;;;;;5077268;28;20027;-76
2022/03/24 07:27:02;;;;;;;49.70;18.30;;;7.10;99.90;;;;;;5076868;28;20036;-76
2022/03/24 07:29:27;;;;;;;51.78;18.42;;;7.30;99.90;;;;;;5076665;28;20028;-75
2022/03/24 07:31:53;;;;;;;37.95;15.75;;;7.50;99.90;;;;;;5076627;28;20059;-76
2022/03/24 07:34:19;;;;;;;42.50;16.10;;;7.70;99.90;;;;;;5076615;28;20025;-76
2022/03/24 07:36:45;;;;;;;45.30;16.33;;;7.90;99.90;;;;;;5076417;28;20036;-76
2022/03/24 07:39:11;;;;;;;35.78;14.23;;;8.10;99.90;;;;;;5076727;28;20017;-75
2022/03/24 07:41:37;;;;;;;39.22;15.80;;;8.30;99.90;;;;;;5075581;28;20020;-76
2022/03/24 07:44:03;;;;;;;35.92;15.82;;;8.50;99.90;;;;;;5077493;28;20382;-75
2022/03/24 07:46:28;;;;;;;38.70;14.77;;;8.70;99.90;;;;;;5076743;28;20027;-75
2022/03/24 07:48:54;;;;;;;39.28;16.10;;;8.90;99.90;;;;;;5076809;28;20031;-75
2022/03/24 07:51:20;;;;;;;39.47;14.50;;;9.10;99.90;;;;;;5075683;28;20028;-75
2022/03/24 07:53:48;;;;;;;39.50;17.00;;;9.30;99.90;;;;;;5076566;28;20073;-76
2022/03/24 07:56:19;;;;;;;37.45;14.52;;;9.40;99.90;;;;;;5076819;28;20074;-76
2022/03/24 07:58:45;;;;;;;37.97;14.85;;;9.60;99.90;;;;;;5074891;28;20031;-75
2022/03/24 08:01:11;;;;;;;38.45;16.63;;;9.80;99.90;;;;;;5074743;28;20025;-75
2022/03/24 08:03:37;;;;;;;43.28;15.10;;;10.00;99.90;;;;;;5076186;28;20039;-74
2022/03/24 08:06:03;;;;;;;40.15;14.02;;;10.20;99.90;;;;;;5075004;28;20021;-75
2022/03/24 08:08:29;;;;;;;35.17;14.48;;;10.40;99.90;;;;;;5075981;28;20043;-75
2022/03/24 08:10:55;;;;;;;31.42;12.98;;;10.60;99.90;;;;;;5074705;28;20078;-75
2022/03/24 08:13:22;;;;;;;39.08;15.77;;;10.70;99.90;;;;;;5076244;28;20150;-75
2022/03/24 08:15:49;;;;;;;34.10;14.40;;;10.90;99.90;;;;;;5075819;28;20047;-75
2022/03/24 08:18:16;;;;;;;29.63;12.82;;;11.10;99.90;;;;;;5074746;28;20037;-75
2022/03/24 08:20:43;;;;;;;41.05;12.95;;;11.20;99.90;;;;;;5075937;28;20031;-75
2022/03/24 08:23:11;;;;;;;35.40;13.52;;;11.30;99.90;;;;;;5074259;28;20107;-75
2022/03/24 08:25:38;;;;;;;33.73;13.83;;;11.50;99.90;;;;;;5075678;28;20095;-76
2022/03/24 08:28:05;;;;;;;35.50;14.48;;;11.70;99.90;;;;;;5075424;28;20074;-75
2022/03/24 08:30:30;;;;;;;32.60;13.38;;;11.80;99.90;;;;;;5075301;28;20023;-75
2022/03/24 08:32:57;;;;;;;38.80;15.70;;;12.00;99.90;;;;;;5075598;28;20021;-75
2022/03/24 08:35:23;;;;;;;31.10;12.98;;;12.10;99.90;;;;;;5075591;28;20032;-75
2022/03/24 08:37:49;;;;;;;30.98;13.68;;;12.30;99.90;;;;;;5075180;28;20028;-74
2022/03/24 08:40:15;;;;;;;30.00;12.10;;;12.50;99.90;;;;;;5075357;28;20032;-76
2022/03/24 08:42:42;;;;;;;27.60;12.13;;;12.70;99.30;;;;;;5075630;28;20036;-75
2022/03/24 08:45:10;;;;;;;29.70;12.23;;;12.80;96.20;;;;;;5075100;28;20052;-76
2022/03/24 08:47:36;;;;;;;26.95;11.82;;;12.90;90.70;;;;;;5075072;28;20057;-75
2022/03/24 08:50:05;;;;;;;24.38;11.18;;;13.00;81.90;;;;;;5073739;28;20056;-75
2022/03/24 08:52:30;;;;;;;30.48;11.32;;;13.10;73.10;;;;;;5074902;28;20024;-76
2022/03/24 08:54:56;;;;;;;32.55;11.60;;;13.20;72.50;;;;;;5073632;28;20553;-76
2022/03/24 08:57:29;;;;;;;32.47;11.25;;;13.30;70.30;;;;;;5073624;28;20031;-76
2022/03/24 08:59:56;;;;;;;22.55;10.07;;;13.50;69.40;;;;;;5074749;28;20094;-76
2022/03/24 09:02:22;;;;;;;27.08;10.70;;;13.70;66.80;;;;;;5073514;28;20028;-76
2022/03/24 09:04:48;;;;;;;28.08;10.88;;;13.80;65.70;;;;;;5074943;28;20025;-76
2022/03/24 09:07:15;;;;;;;30.85;13.20;;;14.00;64.10;;;;;;5074594;28;20025;-76
2022/03/24 09:09:41;;;;;;;29.10;10.82;;;14.20;66.90;;;;;;5073259;28;20024;-76
2022/03/24 09:12:09;;;;;;;26.70;10.65;;;14.30;65.40;;;;;;5074781;28;20077;-75
2022/03/24 09:14:35;;;;;;;22.80;10.05;;;14.40;62.50;;;;;;5074524;28;20017;-76
2022/03/24 09:17:01;;;;;;;27.98;12.23;;;14.60;62.60;;;;;;5073301;28;20490;-77
2022/03/24 09:19:27;;;;;;;22.58;10.32;;;14.70;62.30;;;;;;5074195;28;20032;-77
2022/03/24 09:21:52;;;;;;;23.17;11.15;;;14.70;59.10;;;;;;5074458;28;20150;-77
2022/03/24 09:24:18;;;;;;;19.55;9.73;;;14.80;58.80;;;;;;5073730;28;20066;-77
2022/03/24 09:26:43;;;;;;;22.65;10.55;;;15.00;59.20;;;;;;5074851;28;20028;-77
2022/03/24 09:29:10;;;;;;;26.00;10.20;;;15.00;56.30;;;;;;5074176;28;20033;-77
2022/03/24 09:31:36;;;;;;;25.15;10.65;;;15.10;56.10;;;;;;5074184;28;20428;-76
2022/03/24 09:34:02;;;;;;;23.05;10.55;;;15.30;55.20;;;;;;5074766;28;20035;-77
2022/03/24 09:36:29;;;;;;;20.27;9.30;;;15.40;49.00;;;;;;5072870;28;20024;-76
2022/03/24 09:38:54;;;;;;;19.35;9.57;;;15.60;51.00;;;;;;5072560;28;20021;-76
2022/03/24 09:41:21;;;;;;;21.00;8.18;;;15.70;49.30;;;;;;5074268;28;20074;-76
2022/03/24 09:43:47;;;;;;;20.17;9.25;;;15.80;49.60;;;;;;5074122;28;20111;-77
2022/03/24 09:46:15;;;;;;;18.73;8.45;;;16.00;46.90;;;;;;5074113;28;20431;-77
2022/03/24 09:48:41;;;;;;;19.13;8.82;;;16.10;45.50;;;;;;5074333;28;20089;-77
2022/03/24 09:51:08;;;;;;;16.17;8.25;;;16.20;46.00;;;;;;5072886;28;20115;-77
2022/03/24 09:53:33;;;;;;;19.83;8.68;;;16.30;45.70;;;;;;5073723;28;20024;-76
2022/03/24 09:55:59;;;;;;;17.77;9.77;;;16.50;46.70;;;;;;5073915;28;20025;-76
2022/03/24 09:58:28;;;;;;;19.73;8.93;;;16.60;47.80;;;;;;5072253;28;20111;-76
2022/03/24 10:00:53;;;;;;;14.68;8.77;;;16.80;43.90;;;;;;5072309;28;20048;-76
2022/03/24 10:03:21;;;;;;;19.15;9.48;;;16.90;46.10;;;;;;5074096;28;20174;-75
2022/03/24 10:06:02;;;;;;;21.85;10.05;;;17.00;46.10;;;;;;5073529;28;20066;-76
2022/03/24 10:08:29;;;;;;;20.05;9.88;;;17.10;46.00;;;;;;5073469;28;20024;-77
2022/03/24 10:11:02;;;;;;;20.48;9.75;;;17.20;45.00;;;;;;5072427;28;20664;-77
2022/03/24 10:13:44;;;;;;;22.60;9.15;;;17.30;44.90;;;;;;5073961;28;20039;-77
2022/03/24 10:16:12;;;;;;;18.83;9.48;;;17.40;43.80;;;;;;5073303;28;20513;-75
2022/03/24 10:18:55;;;;;;;17.90;8.55;;;17.50;41.40;;;;;;5073311;28;20025;-76
2022/03/24 10:21:23;;;;;;;17.30;8.23;;;17.50;40.80;;;;;;5073482;28;20470;-76
2022/03/24 10:23:48;;;;;;;21.92;8.68;;;17.50;41.80;;;;;;5073612;28;20496;-76
2022/03/24 10:26:14;;;;;;;18.70;8.82;;;17.70;42.20;;;;;;5073489;28;20017;-76
2022/03/24 10:28:58;;;;;;;16.52;9.23;;;17.70;40.60;;;;;;5072840;28;20462;-76
2022/03/24 10:31:35;;;;;;;17.08;8.10;;;17.80;40.80;;;;;;5074345;28;20020;-76
2022/03/24 10:34:00;;;;;;;20.17;9.35;;;17.80;40.30;;;;;;5074038;28;20028;-76
2022/03/24 10:36:27;;;;;;;19.02;8.73;;;18.00;40.50;;;;;;5074806;28;20381;-76
2022/03/24 10:39:00;;;;;;;22.52;9.15;;;18.10;40.60;;;;;;5074580;28;20095;-76
2022/03/24 10:41:28;;;;;;;21.15;8.73;;;18.30;39.50;;;;;;5074223;28;20027;-76
2022/03/24 10:43:57;;;;;;;20.15;9.88;;;18.30;40.20;;;;;;5073726;28;20024;-76
2022/03/24 10:46:28;;;;;;;23.00;9.05;;;18.40;39.70;;;;;;5074279;28;20381;-76
2022/03/24 10:48:54;;;;;;;21.58;10.02;;;18.60;39.90;;;;;;5074641;28;20047;-76
2022/03/24 10:51:28;;;;;;;18.98;8.85;;;18.70;41.60;;;;;;5072013;28;20030;-77
2022/03/24 10:54:02;;;;;;;25.77;10.82;;;18.70;39.50;;;;;;5073403;28;20057;-77
2022/03/24 10:56:36;;;;;;;31.33;11.35;;;18.70;42.80;;;;;;5073261;28;20467;-76
2022/03/24 10:59:05;;;;;;;26.35;12.07;;;18.80;44.20;;;;;;5073007;28;20025;-77
2022/03/24 11:01:33;;;;;;;22.20;11.50;;;18.90;44.80;;;;;;5072993;28;20490;-77
2022/03/24 11:03:59;;;;;;;19.08;8.27;;;18.90;43.80;;;;;;5071863;28;20013;-77
2022/03/24 11:06:27;;;;;;;21.63;8.32;;;18.90;42.70;;;;;;5073012;28;20032;-77
2022/03/24 11:08:58;;;;;;;21.00;10.90;;;19.10;42.80;;;;;;5073260;28;20427;-77
2022/03/24 11:11:23;;;;;;;24.95;11.07;;;19.20;43.60;;;;;;5073247;28;20267;-77
2022/03/24 11:13:57;;;;;;;22.73;9.88;;;19.20;43.70;;;;;;5073474;28;20031;-77
2022/03/24 11:16:24;;;;;;;20.17;10.57;;;19.30;41.50;;;;;;5073147;28;20032;-76
2022/03/24 11:18:52;;;;;;;22.43;9.73;;;19.30;41.60;;;;;;5072857;28;20367;-76
2022/03/24 11:21:49;;;;;;;23.42;10.75;;;19.40;42.40;;;;;;5071514;28;20481;-77
2022/03/24 11:24:15;;;;;;;19.93;10.40;;;19.50;42.60;;;;;;5071558;28;20031;-76
2022/03/24 11:26:41;;;;;;;22.10;10.15;;;19.60;41.60;;;;;;5073306;28;20017;-76
2022/03/24 11:29:06;;;;;;;20.83;10.15;;;19.60;40.80;;;;;;5072666;28;20024;-75
2022/03/24 11:31:35;;;;;;;20.02;9.63;;;19.50;41.20;;;;;;5073241;28;20494;-76
2022/03/24 11:34:04;;;;;;;17.10;9.13;;;19.70;42.20;;;;;;5071544;28;20039;-76
2022/03/24 11:36:31;;;;;;;21.50;9.02;;;19.80;42.00;;;;;;5072686;28;20478;-76
2022/03/24 11:38:59;;;;;;;18.58;8.77;;;20.00;42.00;;;;;;5072598;28;20017;-76
2022/03/24 11:41:42;;;;;;;14.70;6.70;;;20.10;41.20;;;;;;5072821;28;20035;-77
2022/03/24 11:44:14;;;;;;;20.20;6.35;;;20.20;41.70;;;;;;5073073;28;20027;-77
2022/03/24 11:47:02;;;;;;;15.88;6.32;;;20.40;41.60;;;;;;5072630;28;20112;-77
2022/03/24 11:49:29;;;;;;;17.90;5.78;;;20.70;42.70;;;;;;5072701;28;20046;-77
2022/03/24 11:51:58;;;;;;;11.67;6.13;;;20.80;41.20;;;;;;5073152;28;20097;-76
2022/03/24 11:54:33;;;;;;;14.95;5.80;;;20.80;42.40;;;;;;5074758;28;20119;-77
2022/03/24 11:57:24;;;;;;;16.17;6.00;;;20.60;44.10;;;;;;5076116;28;20425;-77
2022/03/24 12:00:11;;;;;;;14.30;6.18;;;20.70;43.80;;;;;;5075947;28;20486;-76
2022/03/24 12:02:40;;;;;;;15.60;6.20;;;20.90;43.40;;;;;;5074558;28;20368;-77
2022/03/24 12:05:07;;;;;;;17.83;6.78;;;20.70;42.10;;;;;;5075739;28;20025;-77
2022/03/24 12:07:32;;;;;;;15.07;5.82;;;21.40;42.10;;;;;;5074605;28;20078;-76
2022/03/24 12:10:01;;;;;;;19.85;5.88;;;21.60;42.10;;;;;;5075879;28;20029;-76
2022/03/24 12:12:27;;;;;;;15.07;5.50;;;21.80;42.00;;;;;;5075965;28;20036;-76
2022/03/24 12:14:56;;;;;;;12.98;3.97;;;22.10;43.40;;;;;;5076195;28;20032;-77
2022/03/24 12:17:26;;;;;;;10.88;4.80;;;22.30;42.60;;;;;;5075806;28;20029;-76
2022/03/24 12:19:55;;;;;;;13.45;4.88;;;22.30;42.70;;;;;;5075933;28;20640;-77
2022/03/24 12:22:30;;;;;;;12.77;5.78;;;22.40;42.90;;;;;;5075813;28;20488;-76
2022/03/24 12:24:59;;;;;;;12.98;6.05;;;22.30;41.70;;;;;;5076053;28;20024;-76
2022/03/24 12:27:25;;;;;;;;;;;22.00;41.20;;;;;;5075905;28;20020;-76
2022/03/24 12:30:10;;;;;;;16.27;6.43;;;21.60;41.80;;;;;;5075616;28;20266;-76
2022/03/24 12:32:39;;;;;;;19.70;7.65;;;21.30;42.50;;;;;;5074170;28;20062;-76
2022/03/24 12:35:06;;;;;;;18.00;7.40;;;21.10;43.40;;;;;;5075766;28;20056;-76
2022/03/24 12:37:31;;;;;;;12.05;5.47;;;21.10;44.10;;;;;;5075319;28;20017;-77
2022/03/24 12:40:07;;;;;;;16.35;6.22;;;21.40;43.90;;;;;;5075409;28;20028;-76